createdAt,value
2018-10-12T00:01:49.488Z,99.90
2018-10-12T00:04:18.114Z,99.90
2018-10-12T00:06:46.797Z,99.90
2018-10-12T00:09:15.533Z,99.90
2018-10-12T00:11:44.222Z,99.90
2018-10-12T00:14:12.957Z,99.90
2018-10-12T00:16:41.564Z,99.90
2018-10-12T00:19:10.207Z,99.90
2018-10-12T00:21:38.910Z,99.90
2018-10-12T00:24:08.416Z,99.90
2018-10-12T00:26:37.146Z,99.90
2018-10-12T00:29:06.014Z,99.90
2018-10-12T00:31:34.663Z,99.90
2018-10-12T00:34:03.389Z,99.90
2018-10-12T00:36:32.090Z,99.90
2018-10-12T00:39:00.751Z,99.90
2018-10-12T00:41:29.462Z,99.90
2018-10-12T00:43:58.125Z,99.90
2018-10-12T00:46:26.783Z,99.90
2018-10-12T00:48:55.409Z,99.90
2018-10-12T00:51:24.021Z,99.90
2018-10-12T00:53:52.641Z,99.90
2018-10-12T00:56:21.351Z,99.90
2018-10-12T00:58:50.013Z,99.90
2018-10-12T01:01:19.469Z,99.90
2018-10-12T01:03:48.896Z,99.90
2018-10-12T01:06:17.713Z,99.90
2018-10-12T01:08:46.398Z,99.90
2018-10-12T01:11:15.121Z,99.90
2018-10-12T01:13:43.908Z,99.90
2018-10-12T01:16:12.569Z,99.90
2018-10-12T01:18:41.233Z,99.90
2018-10-12T01:21:10.157Z,99.90
2018-10-12T01:23:38.859Z,99.90
2018-10-12T01:26:07.624Z,99.90
2018-10-12T01:28:36.353Z,99.90
2018-10-12T01:31:05.098Z,99.90
2018-10-12T01:33:33.795Z,99.90
2018-10-12T01:36:02.459Z,99.90
2018-10-12T01:38:31.094Z,99.90
2018-10-12T01:40:59.740Z,99.90
2018-10-12T01:43:28.460Z,99.90
2018-10-12T01:45:57.168Z,99.90
2018-10-12T01:48:25.820Z,99.90
2018-10-12T01:50:54.467Z,99.90
2018-10-12T01:53:23.214Z,99.90
2018-10-12T01:55:56.070Z,99.90
2018-10-12T01:58:24.736Z,99.90
2018-10-12T02:00:53.451Z,99.90
2018-10-12T02:03:22.184Z,99.90
2018-10-12T02:05:50.878Z,99.90
2018-10-12T02:08:19.619Z,99.90
2018-10-12T02:10:48.308Z,99.90
2018-10-12T02:13:17.114Z,99.90
2018-10-12T02:15:45.735Z,99.90
2018-10-12T02:18:14.544Z,99.90
2018-10-12T02:20:43.203Z,99.90
2018-10-12T02:23:12.583Z,99.90
2018-10-12T02:25:41.287Z,99.90
2018-10-12T02:28:09.953Z,99.90
2018-10-12T02:30:38.636Z,99.90
2018-10-12T02:33:07.285Z,99.90
2018-10-12T02:35:35.913Z,99.90
2018-10-12T02:38:04.625Z,99.90
2018-10-12T02:40:33.273Z,99.90
2018-10-12T02:43:01.932Z,99.90
2018-10-12T02:45:30.582Z,99.90
2018-10-12T02:47:59.288Z,99.90
2018-10-12T02:50:27.897Z,99.90
2018-10-12T02:52:56.517Z,99.90
2018-10-12T02:55:25.231Z,99.90
2018-10-12T02:57:53.887Z,99.90
2018-10-12T03:00:22.587Z,99.90
2018-10-12T03:02:51.232Z,99.90
2018-10-12T03:05:19.889Z,99.90
2018-10-12T03:07:48.568Z,99.90
2018-10-12T03:10:17.254Z,99.90
2018-10-12T03:12:45.889Z,99.90
2018-10-12T03:15:14.489Z,99.90
2018-10-12T03:17:43.249Z,99.90
2018-10-12T03:20:11.942Z,99.90
2018-10-12T03:22:40.685Z,99.90
2018-10-12T03:25:09.403Z,99.90
2018-10-12T03:27:49.697Z,99.90
2018-10-12T03:30:18.571Z,99.90
2018-10-12T03:32:47.285Z,99.90
2018-10-12T03:35:16.511Z,99.90
2018-10-12T03:37:45.274Z,99.90
2018-10-12T03:40:14.006Z,99.90
2018-10-12T03:42:42.683Z,99.90
2018-10-12T03:45:11.382Z,99.90
2018-10-12T03:47:40.096Z,99.90
2018-10-12T03:50:08.760Z,99.90
2018-10-12T03:52:37.445Z,99.90
2018-10-12T03:55:06.201Z,99.90
2018-10-12T03:57:34.894Z,99.90
2018-10-12T04:00:03.662Z,99.90
2018-10-12T04:02:32.320Z,99.90
2018-10-12T04:05:01.075Z,99.90
2018-10-12T04:07:29.758Z,99.90
2018-10-12T04:09:58.467Z,99.90
2018-10-12T04:12:27.221Z,99.90
2018-10-12T04:14:55.840Z,99.90
2018-10-12T04:17:24.685Z,99.90
2018-10-12T04:19:53.362Z,99.90
2018-10-12T04:22:24.787Z,99.90
2018-10-12T04:24:53.494Z,99.90
2018-10-12T04:27:22.435Z,99.90
2018-10-12T04:29:51.081Z,99.90
2018-10-12T04:32:19.716Z,99.90
2018-10-12T04:34:48.750Z,99.90
2018-10-12T04:37:17.528Z,99.90
2018-10-12T04:40:04.248Z,99.90
2018-10-12T04:42:32.916Z,99.90
2018-10-12T04:45:01.664Z,99.90
2018-10-12T04:47:31.821Z,99.90
2018-10-12T04:50:01.375Z,99.90
2018-10-12T04:52:32.085Z,99.90
2018-10-12T04:55:00.842Z,99.90
2018-10-12T04:57:29.520Z,99.90
2018-10-12T04:59:58.235Z,99.90
2018-10-12T05:02:26.932Z,99.90
2018-10-12T05:04:55.530Z,99.90
2018-10-12T05:07:24.221Z,99.90
2018-10-12T05:09:52.932Z,99.90
2018-10-12T05:12:21.631Z,99.90
2018-10-12T05:14:50.291Z,99.90
2018-10-12T05:17:18.998Z,99.90
2018-10-12T05:19:47.662Z,99.90
2018-10-12T05:22:16.376Z,99.90
2018-10-12T05:24:45.004Z,99.90
2018-10-12T05:27:13.698Z,99.90
2018-10-12T05:29:42.336Z,99.90
2018-10-12T05:32:10.998Z,99.90
2018-10-12T05:34:39.651Z,99.90
2018-10-12T05:37:08.305Z,99.90
2018-10-12T05:39:36.982Z,99.90
2018-10-12T05:42:05.667Z,99.90
2018-10-12T05:44:34.342Z,99.90
2018-10-12T05:47:03.033Z,99.90
2018-10-12T05:49:42.999Z,99.90
2018-10-12T05:52:11.676Z,99.90
2018-10-12T05:54:40.449Z,99.90
2018-10-12T05:57:09.240Z,99.90
2018-10-12T05:59:37.929Z,99.90
2018-10-12T06:02:06.850Z,99.90
2018-10-12T06:04:35.470Z,99.90
2018-10-12T06:07:04.138Z,99.90
2018-10-12T06:09:32.867Z,99.90
2018-10-12T06:12:01.581Z,99.90
2018-10-12T06:14:30.313Z,99.90
2018-10-12T06:16:59.004Z,99.90
2018-10-12T06:19:27.628Z,99.90
2018-10-12T06:21:56.306Z,99.90
2018-10-12T06:24:24.945Z,99.90
2018-10-12T06:26:53.676Z,99.90
2018-10-12T06:29:22.323Z,99.90
2018-10-12T06:31:50.978Z,99.90
2018-10-12T06:34:19.670Z,99.90
2018-10-12T06:36:48.343Z,99.90
2018-10-12T06:39:17.032Z,99.90
2018-10-12T06:41:45.813Z,99.90
2018-10-12T06:44:14.441Z,99.90
2018-10-12T06:46:43.189Z,99.90
2018-10-12T06:49:11.792Z,99.90
2018-10-12T06:51:40.499Z,99.90
2018-10-12T06:54:09.405Z,99.90
2018-10-12T06:56:38.118Z,99.90
2018-10-12T06:59:06.804Z,99.90
2018-10-12T07:01:35.444Z,99.90
2018-10-12T07:04:04.187Z,99.90
2018-10-12T07:06:32.881Z,99.90
2018-10-12T07:09:01.500Z,99.90
2018-10-12T07:11:30.155Z,99.90
2018-10-12T07:13:58.955Z,99.90
2018-10-12T07:16:27.581Z,99.90
2018-10-12T07:18:56.204Z,99.90
2018-10-12T07:21:24.829Z,99.90
2018-10-12T07:23:53.497Z,99.90
2018-10-12T07:26:22.135Z,99.90
2018-10-12T07:28:50.768Z,99.90
2018-10-12T07:31:19.416Z,99.90
2018-10-12T07:33:48.075Z,99.90
2018-10-12T07:36:16.706Z,99.90
2018-10-12T07:38:45.375Z,99.90
2018-10-12T07:41:14.012Z,99.90
2018-10-12T07:43:42.639Z,99.90
2018-10-12T07:46:11.311Z,99.90
2018-10-12T07:48:39.938Z,99.90
2018-10-12T07:51:08.648Z,99.90
2018-10-12T07:53:37.262Z,99.90
2018-10-12T07:56:06.689Z,99.90
2018-10-12T07:58:35.410Z,99.90
2018-10-12T08:01:04.057Z,99.90
2018-10-12T08:03:32.725Z,99.90
2018-10-12T08:06:01.371Z,99.90
2018-10-12T08:08:30.070Z,99.90
2018-10-12T08:10:58.769Z,99.90
2018-10-12T08:13:27.489Z,99.90
2018-10-12T08:15:57.940Z,99.90
2018-10-12T08:18:27.661Z,99.90
2018-10-12T08:20:56.397Z,99.90
2018-10-12T08:23:25.018Z,99.90
2018-10-12T08:25:53.689Z,99.90
2018-10-12T08:28:22.324Z,99.90
2018-10-12T08:30:50.942Z,99.90
2018-10-12T08:33:19.722Z,99.90
2018-10-12T08:35:48.356Z,99.90
2018-10-12T08:38:16.992Z,99.90
2018-10-12T08:40:45.640Z,99.90
2018-10-12T08:43:14.288Z,99.90
2018-10-12T08:45:42.989Z,99.90
2018-10-12T08:48:11.610Z,99.90
2018-10-12T08:50:40.209Z,99.90
2018-10-12T08:53:08.904Z,99.90
2018-10-12T08:55:37.581Z,99.90
2018-10-12T08:58:06.325Z,99.90
2018-10-12T09:00:34.974Z,99.90
2018-10-12T09:03:03.707Z,99.90
2018-10-12T09:05:32.382Z,99.90
2018-10-12T09:08:03.168Z,99.90
2018-10-12T09:10:31.823Z,99.90
2018-10-12T09:13:00.485Z,99.90
2018-10-12T09:15:29.173Z,99.90
2018-10-12T09:17:57.942Z,99.90
2018-10-12T09:20:26.686Z,99.90
2018-10-12T09:22:55.318Z,99.90
2018-10-12T09:25:23.964Z,99.90
2018-10-12T09:27:52.606Z,99.90
2018-10-12T09:30:21.343Z,99.90
2018-10-12T09:32:49.952Z,99.90
2018-10-12T09:35:18.630Z,99.60
2018-10-12T09:37:47.318Z,99.50
2018-10-12T09:40:15.980Z,99.10
2018-10-12T09:42:44.592Z,98.50
2018-10-12T09:45:13.239Z,98.30
2018-10-12T09:47:41.898Z,98.40
2018-10-12T09:50:10.636Z,98.30
2018-10-12T09:52:39.236Z,98.10
2018-10-12T09:55:07.454Z,97.50
2018-10-12T09:57:37.277Z,97.80
2018-10-12T10:00:12.714Z,97.90
2018-10-12T10:02:48.585Z,97.10
2018-10-12T10:05:17.713Z,97.30
2018-10-12T10:07:46.443Z,97.10
2018-10-12T10:10:15.063Z,97.30
2018-10-12T10:12:43.692Z,97.70
2018-10-12T10:15:12.373Z,97.30
2018-10-12T10:17:41.005Z,97.30
2018-10-12T10:20:09.668Z,96.80
2018-10-12T10:22:38.370Z,96.70
2018-10-12T10:25:07.096Z,96.50
2018-10-12T10:27:35.710Z,96.30
2018-10-12T10:30:04.976Z,96.30
2018-10-12T10:32:33.294Z,96.20
2018-10-12T10:35:01.926Z,96.00
2018-10-12T10:37:30.568Z,95.60
2018-10-12T10:39:59.172Z,95.50
2018-10-12T10:42:27.804Z,95.90
2018-10-12T10:44:56.463Z,95.40
2018-10-12T10:47:25.081Z,95.30
2018-10-12T10:49:53.674Z,95.10
2018-10-12T10:52:22.360Z,95.30
2018-10-12T10:54:50.975Z,95.20
2018-10-12T10:57:19.603Z,95.40
2018-10-12T10:59:48.258Z,95.50
2018-10-12T11:02:16.916Z,95.40
2018-10-12T11:04:46.436Z,95.40
2018-10-12T11:07:15.057Z,95.20
2018-10-12T11:09:43.690Z,95.20
2018-10-12T11:12:12.440Z,95.20
2018-10-12T11:14:41.012Z,94.90
2018-10-12T11:17:09.695Z,94.20
2018-10-12T11:19:38.390Z,94.40
2018-10-12T11:22:07.044Z,94.40
2018-10-12T11:24:35.727Z,94.80
2018-10-12T11:27:04.366Z,94.00
2018-10-12T11:29:32.980Z,94.20
2018-10-12T11:32:01.571Z,94.80
2018-10-12T11:34:30.465Z,93.90
2018-10-12T11:36:59.071Z,93.80
2018-10-12T11:39:27.704Z,93.30
2018-10-12T11:41:56.326Z,93.20
2018-10-12T11:44:24.938Z,93.10
2018-10-12T11:46:53.633Z,93.00
2018-10-12T11:49:22.289Z,92.90
2018-10-12T11:51:50.978Z,92.80
2018-10-12T11:54:19.673Z,92.60
2018-10-12T11:56:48.373Z,92.90
2018-10-12T11:59:16.972Z,92.80
2018-10-12T12:01:45.582Z,92.30
2018-10-12T12:04:14.253Z,92.40
2018-10-12T12:06:42.937Z,92.60
2018-10-12T12:09:11.558Z,92.80
2018-10-12T12:11:40.208Z,92.50
2018-10-12T12:14:08.862Z,92.10
2018-10-12T12:16:37.532Z,93.00
2018-10-12T12:19:06.241Z,93.20
2018-10-12T12:21:35.021Z,92.10
2018-10-12T12:24:03.725Z,92.10
2018-10-12T12:26:32.368Z,91.70
2018-10-12T12:29:01.027Z,92.10
2018-10-12T12:31:29.726Z,92.10
2018-10-12T12:33:58.359Z,92.40
2018-10-12T12:36:27.086Z,91.90
2018-10-12T12:38:55.745Z,91.70
2018-10-12T12:41:24.372Z,91.70
2018-10-12T12:43:53.062Z,91.30
2018-10-12T12:46:21.758Z,92.10
2018-10-12T12:48:50.903Z,91.90
2018-10-12T12:51:19.080Z,91.10
2018-10-12T12:53:47.776Z,91.00
2018-10-12T12:56:16.377Z,91.00
2018-10-12T12:58:45.039Z,90.50
2018-10-12T13:01:13.753Z,90.80
2018-10-12T13:03:42.368Z,90.00
2018-10-12T13:06:11.014Z,90.50
2018-10-12T13:08:39.673Z,90.70
2018-10-12T13:11:08.344Z,90.60
2018-10-12T13:13:37.029Z,90.20
2018-10-12T13:16:05.685Z,90.20
2018-10-12T13:18:34.329Z,90.30
2018-10-12T13:21:02.964Z,89.50
2018-10-12T13:23:31.616Z,89.70
2018-10-12T13:26:00.383Z,89.70
2018-10-12T13:28:28.919Z,89.30
2018-10-12T13:30:57.549Z,89.50
2018-10-12T13:33:26.184Z,88.80
2018-10-12T13:35:54.844Z,89.40
2018-10-12T13:38:23.538Z,89.70
2018-10-12T13:40:52.152Z,89.60
2018-10-12T13:43:20.773Z,89.70
2018-10-12T13:45:49.434Z,89.20
2018-10-12T13:48:18.032Z,89.50
2018-10-12T13:50:46.697Z,90.00
2018-10-12T13:53:15.363Z,88.80
2018-10-12T13:55:43.981Z,89.50
2018-10-12T13:58:12.662Z,90.10
2018-10-12T14:00:41.268Z,89.00
2018-10-12T14:03:09.904Z,89.60
2018-10-12T14:05:38.617Z,90.00
2018-10-12T14:08:07.446Z,90.10
2018-10-12T14:10:36.103Z,89.60
2018-10-12T14:13:04.815Z,89.40
2018-10-12T14:15:33.425Z,89.50
2018-10-12T14:18:02.115Z,89.80
2018-10-12T14:20:30.756Z,89.90
2018-10-12T14:22:59.397Z,90.00
2018-10-12T14:25:27.998Z,89.60
2018-10-12T14:27:56.655Z,89.80
2018-10-12T14:30:25.291Z,89.90
2018-10-12T14:32:53.938Z,90.20
2018-10-12T14:35:22.588Z,90.10
2018-10-12T14:37:51.382Z,88.20
2018-10-12T14:40:19.931Z,88.50
2018-10-12T14:42:48.598Z,88.80
2018-10-12T14:45:17.239Z,90.40
2018-10-12T14:47:45.928Z,91.70
2018-10-12T14:50:14.573Z,90.40
2018-10-12T14:52:43.201Z,89.30
2018-10-12T14:55:11.918Z,90.30
2018-10-12T14:57:40.548Z,90.00
2018-10-12T15:00:09.853Z,90.40
2018-10-12T15:02:38.553Z,90.00
2018-10-12T15:05:07.249Z,91.00
2018-10-12T15:07:35.957Z,90.80
2018-10-12T15:10:05.145Z,92.70
2018-10-12T15:12:33.922Z,92.40
2018-10-12T15:15:25.963Z,90.50
2018-10-12T15:17:55.540Z,91.40
2018-10-12T15:20:24.319Z,92.80
2018-10-12T15:22:53.046Z,93.30
2018-10-12T15:25:21.736Z,93.10
2018-10-12T15:27:50.362Z,93.20
2018-10-12T15:30:19.333Z,93.60
2018-10-12T15:32:47.961Z,93.70
2018-10-12T15:35:16.562Z,94.10
2018-10-12T15:37:45.522Z,94.20
2018-10-12T15:40:14.150Z,94.20
2018-10-12T15:42:42.745Z,94.90
2018-10-12T15:45:11.401Z,94.50
2018-10-12T15:47:40.036Z,95.50
2018-10-12T15:50:08.692Z,95.50
2018-10-12T15:52:37.348Z,95.70
2018-10-12T15:55:06.161Z,96.20
2018-10-12T15:57:34.908Z,96.10
2018-10-12T16:00:03.648Z,96.20
2018-10-12T16:02:32.414Z,96.80
2018-10-12T16:05:01.046Z,96.90
2018-10-12T16:07:29.702Z,97.40
2018-10-12T16:09:58.410Z,97.50
2018-10-12T16:12:27.180Z,97.60
2018-10-12T16:14:55.853Z,97.80
2018-10-12T16:17:24.469Z,98.30
2018-10-12T16:19:53.047Z,98.50
2018-10-12T16:22:21.752Z,98.60
2018-10-12T16:25:01.693Z,98.80
2018-10-12T16:27:30.328Z,99.10
2018-10-12T16:29:58.988Z,99.30
2018-10-12T16:32:27.668Z,99.40
2018-10-12T16:34:56.296Z,99.60
2018-10-12T16:37:24.989Z,99.60
2018-10-12T16:39:53.639Z,99.80
2018-10-12T16:42:22.242Z,99.70
2018-10-12T16:44:50.898Z,99.60
2018-10-12T16:47:19.503Z,99.70
2018-10-12T16:49:48.135Z,99.90
2018-10-12T16:52:16.776Z,99.80
2018-10-12T16:54:45.445Z,99.80
2018-10-12T16:57:14.152Z,99.80
2018-10-12T16:59:42.819Z,99.90
2018-10-12T17:02:11.439Z,99.90
2018-10-12T17:04:40.078Z,99.90
2018-10-12T17:07:08.765Z,99.90
2018-10-12T17:09:37.412Z,99.90
2018-10-12T17:12:06.085Z,99.90
2018-10-12T17:14:34.746Z,99.90
2018-10-12T17:17:03.389Z,99.90
2018-10-12T17:19:32.023Z,99.90
2018-10-12T17:22:00.651Z,99.90
2018-10-12T17:24:29.357Z,99.90
2018-10-12T17:26:58.050Z,99.90
2018-10-12T17:29:26.641Z,99.90
2018-10-12T17:31:55.307Z,99.90
2018-10-12T17:34:23.946Z,99.90
2018-10-12T17:36:52.649Z,99.90
2018-10-12T17:39:21.287Z,99.90
2018-10-12T17:41:49.948Z,99.90
2018-10-12T17:44:18.641Z,99.90
2018-10-12T17:46:47.301Z,99.90
2018-10-12T17:49:16.048Z,99.90
2018-10-12T17:51:44.684Z,99.90
2018-10-12T17:54:13.435Z,99.90
2018-10-12T17:56:42.157Z,99.90
2018-10-12T17:59:10.813Z,99.90
2018-10-12T18:01:39.547Z,99.90
2018-10-12T18:04:08.209Z,99.90
2018-10-12T18:06:36.891Z,99.90
2018-10-12T18:09:07.573Z,99.90
2018-10-12T18:11:36.238Z,99.90
2018-10-12T18:14:04.912Z,99.90
2018-10-12T18:16:33.617Z,99.90
2018-10-12T18:19:02.346Z,99.90
2018-10-12T18:21:31.041Z,99.90
2018-10-12T18:23:59.677Z,99.90
2018-10-12T18:26:28.522Z,99.90
2018-10-12T18:28:57.197Z,99.90
2018-10-12T18:31:25.883Z,99.90
2018-10-12T18:33:54.599Z,99.90
2018-10-12T18:36:23.400Z,99.90
2018-10-12T18:38:52.065Z,99.90
2018-10-12T18:41:20.746Z,99.90
2018-10-12T18:43:49.418Z,99.90
2018-10-12T18:46:18.136Z,99.90
2018-10-12T18:48:46.781Z,99.90
2018-10-12T18:51:15.416Z,99.90
2018-10-12T18:53:44.138Z,99.90
2018-10-12T18:56:12.780Z,99.90
2018-10-12T18:58:41.405Z,99.90
2018-10-12T19:01:10.077Z,99.90
2018-10-12T19:03:38.754Z,99.90
2018-10-12T19:06:07.827Z,99.90
2018-10-12T19:08:36.691Z,99.90
2018-10-12T19:11:05.372Z,99.90
2018-10-12T19:13:34.351Z,99.90
2018-10-12T19:16:03.005Z,99.90
2018-10-12T19:18:31.820Z,99.90
2018-10-12T19:21:00.480Z,99.90
2018-10-12T19:23:30.405Z,99.90
2018-10-12T19:25:59.110Z,99.90
2018-10-12T19:28:27.782Z,99.90
2018-10-12T19:30:56.549Z,99.90
2018-10-12T19:33:25.129Z,99.90
2018-10-12T19:35:53.796Z,99.90
2018-10-12T19:38:22.558Z,99.90
2018-10-12T19:40:51.284Z,99.90
2018-10-12T19:43:19.934Z,99.90
2018-10-12T19:45:48.660Z,99.90
2018-10-12T19:48:17.352Z,99.90
2018-10-12T19:50:45.981Z,99.90
2018-10-12T19:53:14.597Z,99.90
2018-10-12T19:55:43.225Z,99.90
2018-10-12T19:58:11.862Z,99.90
2018-10-12T20:00:40.481Z,99.90
2018-10-12T20:03:09.146Z,99.90
2018-10-12T20:05:37.836Z,99.90
2018-10-12T20:08:06.704Z,99.90
2018-10-12T20:10:35.491Z,99.90
2018-10-12T20:13:04.057Z,99.90
2018-10-12T20:15:32.648Z,99.90
2018-10-12T20:18:01.291Z,99.90
2018-10-12T20:20:29.910Z,99.90
2018-10-12T20:22:58.564Z,99.90
2018-10-12T20:25:27.174Z,99.90
2018-10-12T20:27:55.821Z,99.90
2018-10-12T20:30:24.492Z,99.90
2018-10-12T20:32:53.094Z,99.90
2018-10-12T20:35:21.697Z,99.90
2018-10-12T20:37:50.410Z,99.90
2018-10-12T20:40:19.062Z,99.90
2018-10-12T20:42:47.753Z,99.90
2018-10-12T20:45:16.481Z,99.90
2018-10-12T20:47:45.197Z,99.90
2018-10-12T20:50:13.856Z,99.90
2018-10-12T20:52:42.556Z,99.90
2018-10-12T20:55:11.205Z,99.90
2018-10-12T20:57:47.021Z,99.90
2018-10-12T21:00:17.125Z,99.90
2018-10-12T21:02:45.950Z,99.90
2018-10-12T21:05:14.580Z,99.90
2018-10-12T21:07:43.999Z,99.90
2018-10-12T21:10:12.656Z,99.90
2018-10-12T21:12:41.325Z,99.90
2018-10-12T21:15:09.983Z,99.90
2018-10-12T21:17:38.687Z,99.90
2018-10-12T21:20:07.732Z,99.90
2018-10-12T21:22:36.438Z,99.90
2018-10-12T21:25:05.105Z,99.90
2018-10-12T21:27:33.853Z,99.90
2018-10-12T21:30:02.627Z,99.90
2018-10-12T21:32:31.221Z,99.90
2018-10-12T21:34:59.856Z,99.90
2018-10-12T21:37:28.525Z,99.90
2018-10-12T21:39:57.140Z,99.90
2018-10-12T21:42:25.851Z,99.90
2018-10-12T21:44:54.455Z,99.90
2018-10-12T21:47:23.031Z,99.90
2018-10-12T21:49:51.767Z,99.90
2018-10-12T21:52:20.356Z,99.90
2018-10-12T21:54:49.001Z,99.90
2018-10-12T21:57:17.595Z,99.90
2018-10-12T21:59:46.219Z,99.90
2018-10-12T22:02:14.868Z,99.90
2018-10-12T22:04:43.450Z,99.90
2018-10-12T22:07:12.085Z,99.90
2018-10-12T22:09:40.737Z,99.90
2018-10-12T22:12:09.440Z,99.90
2018-10-12T22:14:38.049Z,99.90
2018-10-12T22:17:06.732Z,99.90
2018-10-12T22:19:35.363Z,99.90
2018-10-12T22:22:03.998Z,99.90
2018-10-12T22:24:32.622Z,99.90
2018-10-12T22:27:01.246Z,99.90
2018-10-12T22:29:30.022Z,99.90
2018-10-12T22:31:58.668Z,99.90
2018-10-12T22:34:27.265Z,99.90
2018-10-12T22:36:55.906Z,99.90
2018-10-12T22:39:24.537Z,99.90
2018-10-12T22:41:53.183Z,99.90
2018-10-12T22:44:21.805Z,99.90
2018-10-12T22:46:50.466Z,99.90
2018-10-12T22:49:19.096Z,99.90
2018-10-12T22:51:47.733Z,99.90
2018-10-12T22:54:16.411Z,99.90
2018-10-12T22:56:45.041Z,99.90
2018-10-12T22:59:13.663Z,99.90
2018-10-12T23:01:42.333Z,99.90
2018-10-12T23:04:10.941Z,99.90
2018-10-12T23:06:39.535Z,99.90
2018-10-12T23:09:09.644Z,99.90
2018-10-12T23:11:38.576Z,99.90
2018-10-12T23:14:07.729Z,99.90
2018-10-12T23:16:36.342Z,99.90
2018-10-12T23:19:05.013Z,99.90
2018-10-12T23:21:33.629Z,99.90
2018-10-12T23:24:02.365Z,99.90
2018-10-12T23:26:30.992Z,99.90
2018-10-12T23:28:59.858Z,99.90
2018-10-12T23:31:28.631Z,99.90
2018-10-12T23:34:05.470Z,99.90
2018-10-12T23:36:34.168Z,99.90
2018-10-12T23:39:02.967Z,99.90
2018-10-12T23:41:31.593Z,99.90
2018-10-12T23:44:00.237Z,99.90
2018-10-12T23:46:28.913Z,99.90
2018-10-12T23:48:57.524Z,99.90
2018-10-12T23:51:26.116Z,99.90
2018-10-12T23:53:54.796Z,99.90
2018-10-12T23:56:23.445Z,99.90
2018-10-12T23:58:52.126Z,99.90
